createdAt,value
2023-04-03T00:00:35.283Z,2.87
2023-04-03T00:03:38.819Z,2.67
2023-04-03T00:06:41.852Z,3.30
2023-04-03T00:09:44.816Z,2.62
2023-04-03T00:12:49.178Z,3.08
2023-04-03T00:15:52.732Z,2.72
2023-04-03T00:18:56.182Z,2.70
2023-04-03T00:21:59.441Z,2.87
2023-04-03T00:25:02.424Z,2.85
2023-04-03T00:28:06.374Z,2.90
2023-04-03T00:31:09.481Z,2.95
2023-04-03T00:34:12.719Z,3.00
2023-04-03T00:37:15.828Z,2.55
2023-04-03T00:40:19.256Z,2.60
2023-04-03T00:43:24.880Z,2.70
2023-04-03T00:46:28.140Z,2.97
2023-04-03T00:49:31.394Z,2.45
2023-04-03T00:52:34.660Z,2.42
2023-04-03T00:55:38.510Z,2.60
2023-04-03T00:58:51.560Z,2.55
2023-04-03T01:01:58.727Z,2.42
2023-04-03T01:05:02.302Z,1.77
2023-04-03T01:08:05.672Z,2.08
2023-04-03T01:11:10.189Z,2.30
2023-04-03T01:14:13.336Z,2.30
2023-04-03T01:17:31.900Z,2.15
2023-04-03T01:20:37.892Z,2.50
2023-04-03T01:23:57.036Z,2.37
2023-04-03T01:27:00.887Z,2.20
2023-04-03T01:33:08.689Z,2.70
2023-04-03T01:36:21.735Z,2.45
2023-04-03T01:39:24.972Z,2.25
2023-04-03T01:42:28.531Z,1.80
2023-04-03T01:45:32.199Z,2.50
2023-04-03T01:48:35.852Z,2.08
2023-04-03T01:51:39.182Z,1.90
2023-04-03T01:54:42.484Z,2.05
2023-04-03T01:57:45.642Z,2.67
2023-04-03T02:00:49.482Z,2.80
2023-04-03T02:03:52.770Z,2.15
2023-04-03T02:06:55.989Z,2.42
2023-04-03T02:09:59.252Z,2.58
2023-04-03T02:13:02.365Z,1.80
2023-04-03T02:16:12.815Z,2.75
2023-04-03T02:19:16.193Z,2.37
2023-04-03T02:22:19.503Z,2.47
2023-04-03T02:25:22.948Z,2.65
2023-04-03T02:28:27.300Z,2.10
2023-04-03T02:31:31.800Z,2.17
2023-04-03T02:34:37.018Z,2.72
2023-04-03T02:37:40.755Z,2.53
2023-04-03T02:40:44.990Z,1.65
2023-04-03T02:43:49.554Z,2.50
2023-04-03T02:46:52.585Z,2.40
2023-04-03T02:49:55.926Z,2.58
2023-04-03T02:52:58.972Z,2.65
2023-04-03T02:56:01.981Z,2.87
2023-04-03T02:59:06.136Z,2.90
2023-04-03T03:02:10.049Z,2.95
2023-04-03T03:05:13.019Z,2.70
2023-04-03T03:08:16.532Z,3.10
2023-04-03T03:11:20.005Z,2.28
2023-04-03T03:14:23.930Z,3.05
2023-04-03T03:17:26.951Z,2.90
2023-04-03T03:20:31.128Z,2.17
2023-04-03T03:23:34.505Z,2.55
2023-04-03T03:26:37.992Z,2.85
2023-04-03T03:29:41.180Z,2.87
2023-04-03T03:32:44.600Z,3.08
2023-04-03T03:35:47.944Z,3.47
2023-04-03T03:38:51.296Z,2.95
2023-04-03T03:41:54.603Z,2.87
2023-04-03T03:44:58.001Z,3.00
2023-04-03T03:48:01.555Z,3.10
2023-04-03T03:51:05.171Z,2.47
2023-04-03T03:54:09.190Z,2.72
2023-04-03T03:57:12.964Z,3.00
2023-04-03T04:00:17.238Z,2.92
2023-04-03T04:03:22.285Z,2.42
2023-04-03T04:06:25.712Z,3.33
2023-04-03T04:09:30.494Z,2.70
2023-04-03T04:12:33.695Z,3.10
2023-04-03T04:15:37.644Z,2.42
2023-04-03T04:18:42.247Z,2.78
2023-04-03T04:21:45.667Z,2.45
2023-04-03T04:24:48.797Z,1.83
2023-04-03T04:27:52.864Z,2.92
2023-04-03T04:30:56.157Z,2.80
2023-04-03T04:34:01.865Z,1.90
2023-04-03T04:37:05.098Z,2.37
2023-04-03T04:40:09.167Z,1.77
2023-04-03T04:43:15.429Z,2.33
2023-04-03T04:46:19.813Z,2.87
2023-04-03T04:49:23.284Z,2.65
2023-04-03T04:52:26.882Z,2.80
2023-04-03T04:55:30.259Z,2.42
2023-04-03T04:58:33.807Z,2.55
2023-04-03T05:01:38.334Z,2.65
2023-04-03T05:04:42.680Z,2.65
2023-04-03T05:10:55.990Z,2.87
2023-04-03T05:14:00.415Z,3.10
2023-04-03T05:17:04.925Z,2.55
2023-04-03T05:20:09.712Z,2.67
2023-04-03T05:23:14.438Z,2.80
2023-04-03T05:26:17.776Z,2.55
2023-04-03T05:29:25.459Z,2.90
2023-04-03T05:32:28.807Z,2.75
2023-04-03T05:38:39.266Z,3.20
2023-04-03T05:41:44.110Z,2.67
2023-04-03T05:44:49.902Z,2.62
2023-04-03T05:47:54.641Z,2.70
2023-04-03T05:50:57.821Z,2.97
2023-04-03T05:54:10.309Z,2.75
2023-04-03T05:57:13.493Z,2.72
2023-04-03T06:00:18.466Z,2.80
2023-04-03T06:03:23.870Z,2.72
2023-04-03T06:07:03.887Z,2.62
2023-04-03T06:10:09.987Z,2.47
2023-04-03T06:13:14.853Z,2.42
2023-04-03T06:16:18.619Z,2.67
2023-04-03T06:19:22.245Z,2.47
2023-04-03T06:22:27.617Z,2.47
2023-04-03T06:25:30.730Z,1.85
2023-04-03T06:28:34.173Z,2.72
2023-04-03T06:31:40.816Z,2.70
2023-04-03T06:34:44.108Z,2.17
2023-04-03T06:37:47.024Z,2.22
2023-04-03T06:40:50.455Z,2.45
2023-04-03T06:43:53.683Z,2.55
2023-04-03T06:46:57.204Z,2.50
2023-04-03T06:50:00.200Z,2.20
2023-04-03T06:53:03.563Z,2.25
2023-04-03T06:56:06.851Z,2.08
2023-04-03T06:59:10.912Z,1.70
2023-04-03T07:02:14.645Z,1.60
2023-04-03T07:05:17.959Z,0.77
2023-04-03T07:08:21.370Z,1.30
2023-04-03T07:11:24.574Z,1.05
2023-04-03T07:14:27.549Z,1.15
2023-04-03T07:17:30.845Z,0.93
2023-04-03T07:20:33.930Z,1.30
2023-04-03T07:23:37.429Z,1.33
2023-04-03T07:26:40.520Z,1.10
2023-04-03T07:29:43.977Z,1.10
2023-04-03T07:32:47.191Z,0.75
2023-04-03T07:35:51.228Z,1.30
2023-04-03T07:38:54.126Z,0.98
2023-04-03T07:41:57.420Z,1.20
2023-04-03T07:45:01.937Z,2.67
2023-04-03T07:48:05.562Z,1.17
2023-04-03T07:51:09.384Z,1.10
2023-04-03T07:54:12.658Z,1.10
2023-04-03T07:57:15.960Z,1.10
2023-04-03T08:00:20.770Z,1.27
2023-04-03T08:03:24.284Z,1.10
2023-04-03T08:06:41.950Z,0.95
2023-04-03T08:09:48.896Z,1.02
2023-04-03T08:12:53.256Z,0.80
2023-04-03T08:15:58.302Z,0.80
2023-04-03T08:19:15.131Z,1.12
2023-04-03T08:22:22.187Z,0.80
2023-04-03T08:25:31.113Z,0.73
2023-04-03T08:28:34.830Z,0.80
2023-04-03T08:31:37.837Z,0.90
2023-04-03T08:34:41.211Z,0.50
2023-04-03T08:37:44.174Z,0.80
2023-04-03T08:40:47.380Z,0.77
2023-04-03T08:43:58.863Z,0.60
2023-04-03T08:47:16.538Z,0.93
2023-04-03T08:50:23.175Z,1.00
2023-04-03T08:53:29.678Z,0.90
2023-04-03T08:56:34.950Z,0.90
2023-04-03T08:59:39.634Z,0.90
2023-04-03T09:02:48.199Z,0.90
2023-04-03T09:06:18.498Z,0.85
2023-04-03T09:09:37.823Z,0.75
2023-04-03T09:12:44.368Z,0.88
2023-04-03T09:15:47.473Z,0.80
2023-04-03T09:19:01.810Z,0.85
2023-04-03T09:22:13.863Z,0.65
2023-04-03T09:25:22.937Z,0.95
2023-04-03T09:28:26.716Z,0.70
2023-04-03T09:31:41.828Z,0.77
2023-04-03T09:34:45.835Z,0.80
2023-04-03T09:37:52.701Z,0.70
2023-04-03T09:41:19.037Z,0.60
2023-04-03T09:44:45.256Z,0.62
2023-04-03T09:47:48.534Z,1.00
2023-04-03T09:50:51.840Z,0.60
2023-04-03T09:53:55.071Z,0.60
2023-04-03T09:57:05.334Z,0.70
2023-04-03T10:00:41.377Z,0.60
2023-04-03T10:03:47.768Z,0.70
2023-04-03T10:06:53.597Z,0.60
2023-04-03T10:09:58.864Z,0.60
2023-04-03T10:13:16.423Z,0.50
2023-04-03T10:16:30.377Z,0.60
2023-04-03T10:19:59.689Z,0.65
2023-04-03T10:23:12.359Z,0.70
2023-04-03T10:26:25.957Z,0.90
2023-04-03T10:29:44.382Z,0.80
2023-04-03T10:33:02.312Z,0.80
2023-04-03T10:36:26.925Z,0.80
2023-04-03T10:39:51.296Z,0.80
2023-04-03T10:43:00.620Z,1.23
2023-04-03T10:46:07.644Z,0.68
2023-04-03T10:49:21.789Z,0.70
2023-04-03T10:52:28.567Z,0.80
2023-04-03T10:55:37.334Z,0.93
2023-04-03T10:58:42.942Z,0.93
2023-04-03T11:01:49.651Z,0.80
2023-04-03T11:04:56.530Z,0.80
2023-04-03T11:08:04.190Z,0.60
2023-04-03T11:11:10.900Z,0.68
2023-04-03T11:14:35.830Z,0.60
2023-04-03T11:17:45.474Z,0.98
2023-04-03T11:21:00.567Z,0.50
2023-04-03T11:24:08.753Z,0.82
2023-04-03T11:27:23.824Z,0.93
2023-04-03T11:30:31.452Z,0.90
2023-04-03T11:34:11.871Z,0.95
2023-04-03T11:37:24.472Z,0.90
2023-04-03T11:40:31.949Z,1.10
2023-04-03T11:43:35.589Z,1.27
2023-04-03T11:46:57.902Z,1.33
2023-04-03T11:50:06.693Z,1.42
2023-04-03T11:53:13.072Z,1.90
2023-04-03T11:56:25.183Z,0.98
2023-04-03T11:59:38.810Z,1.65
2023-04-03T12:02:53.626Z,1.12
2023-04-03T12:06:18.154Z,1.17
2023-04-03T12:09:37.003Z,1.00
2023-04-03T12:12:42.094Z,1.20
2023-04-03T12:15:54.913Z,5.00
2023-04-03T12:19:05.963Z,0.88
2023-04-03T12:22:12.230Z,0.88
2023-04-03T12:25:50.914Z,1.52
2023-04-03T12:28:55.025Z,0.98
2023-04-03T12:32:24.664Z,1.30
2023-04-03T12:35:36.342Z,1.10
2023-04-03T12:38:54.020Z,1.10
2023-04-03T12:42:22.433Z,1.40
2023-04-03T12:45:27.464Z,1.25
2023-04-03T12:48:33.424Z,0.60
2023-04-03T12:51:44.221Z,1.35
2023-04-03T12:58:27.305Z,1.45
2023-04-03T13:01:30.839Z,0.98
2023-04-03T13:04:34.409Z,1.50
2023-04-03T13:07:40.124Z,1.20
2023-04-03T13:11:12.296Z,1.20
2023-04-03T13:14:18.502Z,1.20
2023-04-03T13:17:22.413Z,1.35
2023-04-03T13:20:31.443Z,1.00
2023-04-03T13:23:37.753Z,1.20
2023-04-03T13:26:41.787Z,1.08
2023-04-03T13:29:45.006Z,1.73
2023-04-03T13:32:48.321Z,1.50
2023-04-03T13:35:59.258Z,1.23
2023-04-03T13:39:16.697Z,1.73
2023-04-03T13:42:32.488Z,1.30
2023-04-03T13:45:37.446Z,0.98
2023-04-03T13:48:52.673Z,1.05
2023-04-03T13:52:06.382Z,1.15
2023-04-03T13:55:26.510Z,1.00
2023-04-03T13:58:32.508Z,1.25
2023-04-03T14:05:01.130Z,1.30
2023-04-03T14:08:04.193Z,1.40
2023-04-03T14:11:07.466Z,1.33
2023-04-03T14:14:17.455Z,1.20
2023-04-03T14:17:24.960Z,0.98
2023-04-03T14:20:29.267Z,1.12
2023-04-03T14:23:34.114Z,1.65
2023-04-03T14:26:37.099Z,1.20
2023-04-03T14:29:40.491Z,1.42
2023-04-03T14:32:43.741Z,1.50
2023-04-03T14:35:48.019Z,1.10
2023-04-03T14:38:51.699Z,1.20
2023-04-03T14:41:54.950Z,0.98
2023-04-03T14:44:58.733Z,1.12
2023-04-03T14:48:02.188Z,1.10
2023-04-03T14:51:06.215Z,1.10
2023-04-03T14:54:18.254Z,1.27
2023-04-03T14:57:23.425Z,1.27
2023-04-03T15:00:30.436Z,0.90
2023-04-03T15:03:33.541Z,1.27
2023-04-03T15:06:37.800Z,0.98
2023-04-03T15:09:41.099Z,1.20
2023-04-03T15:12:45.152Z,1.25
2023-04-03T15:15:48.398Z,1.15
2023-04-03T15:18:51.693Z,0.90
2023-04-03T15:21:54.642Z,1.30
2023-04-03T15:24:57.921Z,1.02
2023-04-03T15:28:01.153Z,0.90
2023-04-03T15:31:05.534Z,0.60
2023-04-03T15:34:08.419Z,0.73
2023-04-03T15:37:11.682Z,1.00
2023-04-03T15:40:14.963Z,0.93
2023-04-03T15:43:18.207Z,1.25
2023-04-03T15:46:21.372Z,1.60
2023-04-03T15:49:25.672Z,1.12
2023-04-03T15:52:28.575Z,0.95
2023-04-03T15:55:34.781Z,1.30
2023-04-03T15:58:38.073Z,0.62
2023-04-03T16:01:41.615Z,1.55
2023-04-03T16:04:44.818Z,1.50
2023-04-03T16:07:48.339Z,1.65
2023-04-03T16:10:51.625Z,2.07
2023-04-03T16:13:55.438Z,1.73
2023-04-03T16:17:01.648Z,1.10
2023-04-03T16:20:05.916Z,1.27
2023-04-03T16:23:09.194Z,1.40
2023-04-03T16:26:12.365Z,1.12
2023-04-03T16:29:15.737Z,1.12
2023-04-03T16:32:18.775Z,1.40
2023-04-03T16:35:22.545Z,1.23
2023-04-03T16:38:25.576Z,1.40
2023-04-03T16:41:30.326Z,1.30
2023-04-03T16:44:33.488Z,0.90
2023-04-03T16:47:37.556Z,1.08
2023-04-03T16:50:40.996Z,1.02
2023-04-03T16:53:44.706Z,1.02
2023-04-03T16:56:48.119Z,1.08
2023-04-03T16:59:52.268Z,0.90
2023-04-03T17:02:55.358Z,2.00
2023-04-03T17:05:59.286Z,1.52
2023-04-03T17:09:02.900Z,1.35
2023-04-03T17:12:06.754Z,1.90
2023-04-03T17:15:10.836Z,1.48
2023-04-03T17:18:14.304Z,2.20
2023-04-03T17:21:17.842Z,1.52
2023-04-03T17:24:21.184Z,1.50
2023-04-03T17:27:24.190Z,2.08
2023-04-03T17:30:28.987Z,2.10
2023-04-03T17:33:32.172Z,2.50
2023-04-03T17:36:37.784Z,1.90
2023-04-03T17:39:42.120Z,1.77
2023-04-03T17:42:45.846Z,1.60
2023-04-03T17:45:48.871Z,1.37
2023-04-03T17:48:52.934Z,1.70
2023-04-03T17:51:56.589Z,1.70
2023-04-03T17:55:01.504Z,1.17
2023-04-03T17:58:05.360Z,1.30
2023-04-03T18:01:30.004Z,1.15
2023-04-03T18:04:33.914Z,0.95
2023-04-03T18:07:41.456Z,1.58
2023-04-03T18:10:45.830Z,1.30
2023-04-03T18:13:50.114Z,1.50
2023-04-03T18:17:01.305Z,1.70
2023-04-03T18:20:06.169Z,1.50
2023-04-03T18:26:19.774Z,1.90
2023-04-03T18:29:25.257Z,2.60
2023-04-03T18:32:29.450Z,2.30
2023-04-03T18:35:34.428Z,2.00
2023-04-03T18:38:38.841Z,2.42
2023-04-03T18:41:43.714Z,2.20
2023-04-03T18:44:50.242Z,2.60
2023-04-03T18:47:55.265Z,2.17
2023-04-03T18:51:00.416Z,1.95
2023-04-03T18:54:05.347Z,2.42
2023-04-03T18:57:10.624Z,1.77
2023-04-03T19:00:17.823Z,2.12
2023-04-03T19:03:23.618Z,1.87
2023-04-03T19:06:30.858Z,2.00
2023-04-03T19:09:34.982Z,1.37
2023-04-03T19:12:42.332Z,1.50
2023-04-03T19:15:53.296Z,1.74
2023-04-03T19:18:57.387Z,1.73
2023-04-03T19:22:04.504Z,1.52
2023-04-03T19:25:13.331Z,1.40
2023-04-03T19:28:16.776Z,1.45
2023-04-03T19:31:23.277Z,1.60
2023-04-03T19:34:28.331Z,2.00
2023-04-03T19:37:32.994Z,1.50
2023-04-03T19:40:38.768Z,1.85
2023-04-03T19:43:43.724Z,1.67
2023-04-03T19:46:51.196Z,1.52
2023-04-03T19:49:55.771Z,1.73
2023-04-03T19:53:03.068Z,1.12
2023-04-03T19:56:07.348Z,1.80
2023-04-03T19:59:11.122Z,2.00
2023-04-03T20:02:16.082Z,1.80
2023-04-03T20:05:20.969Z,1.75
2023-04-03T20:08:28.362Z,1.75
2023-04-03T20:11:36.147Z,1.73
2023-04-03T20:14:41.230Z,1.42
2023-04-03T20:17:45.702Z,1.25
2023-04-03T20:20:57.164Z,1.50
2023-04-03T20:24:04.704Z,1.80
2023-04-03T20:27:08.066Z,1.45
2023-04-03T20:30:13.293Z,1.73
2023-04-03T20:33:16.468Z,1.50
2023-04-03T20:36:22.221Z,1.20
2023-04-03T20:39:26.068Z,1.20
2023-04-03T20:42:29.955Z,1.50
2023-04-03T20:45:34.014Z,1.58
2023-04-03T20:48:37.478Z,1.92
2023-04-03T20:51:40.434Z,1.48
2023-04-03T20:54:44.427Z,1.85
2023-04-03T20:57:54.377Z,1.48
2023-04-03T21:00:58.041Z,1.67
2023-04-03T21:04:10.046Z,1.55
2023-04-03T21:07:51.219Z,1.67
2023-04-03T21:11:32.786Z,1.45
2023-04-03T21:15:14.758Z,1.40
2023-04-03T21:18:39.219Z,1.60
2023-04-03T21:21:45.916Z,1.45
2023-04-03T21:24:48.856Z,1.87
2023-04-03T21:27:52.155Z,1.90
2023-04-03T21:30:55.145Z,1.58
2023-04-03T21:33:58.516Z,1.55
2023-04-03T21:37:06.576Z,1.42
2023-04-03T21:40:10.036Z,1.65
2023-04-03T21:43:13.094Z,1.87
2023-04-03T21:46:16.415Z,1.80
2023-04-03T21:49:19.768Z,1.50
2023-04-03T21:52:23.082Z,1.52
2023-04-03T21:55:26.144Z,1.52
2023-04-03T21:58:33.136Z,1.83
2023-04-03T22:01:36.443Z,1.52
2023-04-03T22:04:39.799Z,2.03
2023-04-03T22:07:48.907Z,2.25
2023-04-03T22:10:53.064Z,2.10
2023-04-03T22:13:57.016Z,2.40
2023-04-03T22:17:01.793Z,2.60
2023-04-03T22:20:05.240Z,2.90
2023-04-03T22:23:09.310Z,3.53
2023-04-03T22:26:12.898Z,2.87
2023-04-03T22:29:17.270Z,2.00
2023-04-03T22:32:20.263Z,4.12
2023-04-03T22:35:27.552Z,3.05
2023-04-03T22:38:30.711Z,1.62
2023-04-03T22:41:34.032Z,1.30
2023-04-03T22:44:37.002Z,1.35
2023-04-03T22:47:40.297Z,1.55
2023-04-03T22:50:43.613Z,1.35
2023-04-03T22:53:46.931Z,1.60
2023-04-03T22:56:49.787Z,1.70
2023-04-03T22:59:52.987Z,1.70
2023-04-03T23:02:56.694Z,2.45
2023-04-03T23:06:04.685Z,2.40
2023-04-03T23:09:07.576Z,2.33
2023-04-03T23:12:12.203Z,2.12
2023-04-03T23:15:15.488Z,1.80
2023-04-03T23:18:19.730Z,2.10
2023-04-03T23:21:23.207Z,2.60
2023-04-03T23:24:26.653Z,2.42
2023-04-03T23:27:29.658Z,2.40
2023-04-03T23:30:33.640Z,2.65
2023-04-03T23:33:44.011Z,3.35
2023-04-03T23:36:47.342Z,3.85
2023-04-03T23:39:50.281Z,2.67
2023-04-03T23:42:53.437Z,2.40
2023-04-03T23:45:56.552Z,2.10
2023-04-03T23:48:59.859Z,1.98
2023-04-03T23:52:03.019Z,1.77
2023-04-03T23:55:07.467Z,1.98
2023-04-03T23:58:13.299Z,1.85
